sensor_id;sensor_type;location;lat;lon;timestamp;P1;durP1;ratioP1;P2;durP2;ratioP2
49876;SDS011;35771;48.978;9.294;2022-09-02T00:01:25;3.15;;;2.63;;
49876;SDS011;35771;48.978;9.294;2022-09-02T00:03:55;3.05;;;2.40;;
49876;SDS011;35771;48.978;9.294;2022-09-02T00:06:24;3.03;;;2.65;;
49876;SDS011;35771;48.978;9.294;2022-09-02T00:08:52;5.00;;;2.65;;
49876;SDS011;35771;48.978;9.294;2022-09-02T00:11:21;4.72;;;2.58;;
49876;SDS011;35771;48.978;9.294;2022-09-02T00:16:18;2.90;;;2.60;;
49876;SDS011;35771;48.978;9.294;2022-09-02T00:18:47;3.92;;;2.45;;
49876;SDS011;35771;48.978;9.294;2022-09-02T00:21:16;2.72;;;2.40;;
49876;SDS011;35771;48.978;9.294;2022-09-02T00:23:44;4.13;;;2.40;;
49876;SDS011;35771;48.978;9.294;2022-09-02T00:26:11;3.90;;;2.53;;
49876;SDS011;35771;48.978;9.294;2022-09-02T00:28:39;6.75;;;3.42;;
49876;SDS011;35771;48.978;9.294;2022-09-02T00:31:06;7.55;;;2.88;;
49876;SDS011;35771;48.978;9.294;2022-09-02T00:33:35;3.75;;;2.60;;
49876;SDS011;35771;48.978;9.294;2022-09-02T00:36:02;5.00;;;2.58;;
49876;SDS011;35771;48.978;9.294;2022-09-02T00:38:30;4.18;;;2.80;;
49876;SDS011;35771;48.978;9.294;2022-09-02T00:40:59;6.25;;;2.30;;
49876;SDS011;35771;48.978;9.294;2022-09-02T00:43:37;4.22;;;3.03;;
49876;SDS011;35771;48.978;9.294;2022-09-02T00:46:06;2.75;;;2.40;;
49876;SDS011;35771;48.978;9.294;2022-09-02T00:48:35;5.22;;;3.08;;
49876;SDS011;35771;48.978;9.294;2022-09-02T00:51:05;4.60;;;2.72;;
49876;SDS011;35771;48.978;9.294;2022-09-02T00:53:33;5.90;;;2.88;;
49876;SDS011;35771;48.978;9.294;2022-09-02T00:56:03;5.75;;;3.03;;
49876;SDS011;35771;48.978;9.294;2022-09-02T00:58:34;3.42;;;2.78;;
49876;SDS011;35771;48.978;9.294;2022-09-02T01:01:03;3.30;;;2.65;;
49876;SDS011;35771;48.978;9.294;2022-09-02T01:03:30;3.38;;;2.53;;
49876;SDS011;35771;48.978;9.294;2022-09-02T01:06:00;2.78;;;2.28;;
49876;SDS011;35771;48.978;9.294;2022-09-02T01:08:31;3.70;;;2.72;;
49876;SDS011;35771;48.978;9.294;2022-09-02T01:11:02;2.85;;;2.50;;
49876;SDS011;35771;48.978;9.294;2022-09-02T01:13:30;2.95;;;2.40;;
49876;SDS011;35771;48.978;9.294;2022-09-02T01:16:03;3.60;;;2.60;;
49876;SDS011;35771;48.978;9.294;2022-09-02T01:18:46;4.00;;;2.90;;
49876;SDS011;35771;48.978;9.294;2022-09-02T01:21:18;3.88;;;2.63;;
49876;SDS011;35771;48.978;9.294;2022-09-02T01:23:46;6.07;;;3.00;;
49876;SDS011;35771;48.978;9.294;2022-09-02T01:26:13;3.60;;;2.55;;
49876;SDS011;35771;48.978;9.294;2022-09-02T01:28:41;8.18;;;3.03;;
49876;SDS011;35771;48.978;9.294;2022-09-02T01:31:07;6.40;;;2.58;;
49876;SDS011;35771;48.978;9.294;2022-09-02T01:33:34;7.07;;;2.67;;
49876;SDS011;35771;48.978;9.294;2022-09-02T01:36:02;6.00;;;3.53;;
49876;SDS011;35771;48.978;9.294;2022-09-02T01:38:30;3.67;;;2.72;;
49876;SDS011;35771;48.978;9.294;2022-09-02T01:40:59;3.20;;;2.80;;
49876;SDS011;35771;48.978;9.294;2022-09-02T01:43:26;3.47;;;2.72;;
49876;SDS011;35771;48.978;9.294;2022-09-02T01:45:54;6.80;;;3.25;;
49876;SDS011;35771;48.978;9.294;2022-09-02T01:48:23;7.77;;;3.07;;
49876;SDS011;35771;48.978;9.294;2022-09-02T01:50:52;3.92;;;3.00;;
49876;SDS011;35771;48.978;9.294;2022-09-02T01:53:21;4.10;;;3.08;;
49876;SDS011;35771;48.978;9.294;2022-09-02T01:55:48;3.60;;;3.22;;
49876;SDS011;35771;48.978;9.294;2022-09-02T01:58:17;5.60;;;3.00;;
49876;SDS011;35771;48.978;9.294;2022-09-02T02:00:44;5.60;;;3.10;;
49876;SDS011;35771;48.978;9.294;2022-09-02T02:03:11;3.47;;;2.88;;
49876;SDS011;35771;48.978;9.294;2022-09-02T02:05:38;3.33;;;3.03;;
49876;SDS011;35771;48.978;9.294;2022-09-02T02:08:05;4.32;;;3.17;;
49876;SDS011;35771;48.978;9.294;2022-09-02T02:10:32;3.55;;;2.97;;
49876;SDS011;35771;48.978;9.294;2022-09-02T02:12:59;6.15;;;3.22;;
49876;SDS011;35771;48.978;9.294;2022-09-02T02:15:27;6.53;;;3.25;;
49876;SDS011;35771;48.978;9.294;2022-09-02T02:17:54;4.55;;;3.22;;
49876;SDS011;35771;48.978;9.294;2022-09-02T02:20:21;3.92;;;3.08;;
49876;SDS011;35771;48.978;9.294;2022-09-02T02:22:48;3.25;;;2.95;;
49876;SDS011;35771;48.978;9.294;2022-09-02T02:25:15;4.68;;;3.10;;
49876;SDS011;35771;48.978;9.294;2022-09-02T02:27:43;3.47;;;3.17;;
49876;SDS011;35771;48.978;9.294;2022-09-02T02:30:10;3.80;;;3.15;;
49876;SDS011;35771;48.978;9.294;2022-09-02T02:32:42;5.07;;;3.75;;
49876;SDS011;35771;48.978;9.294;2022-09-02T02:35:11;3.60;;;2.97;;
49876;SDS011;35771;48.978;9.294;2022-09-02T02:37:39;7.82;;;3.17;;
49876;SDS011;35771;48.978;9.294;2022-09-02T02:40:06;4.85;;;3.30;;
49876;SDS011;35771;48.978;9.294;2022-09-02T02:42:36;3.75;;;2.70;;
49876;SDS011;35771;48.978;9.294;2022-09-02T02:45:04;5.22;;;3.40;;
49876;SDS011;35771;48.978;9.294;2022-09-02T02:47:33;3.55;;;2.95;;
49876;SDS011;35771;48.978;9.294;2022-09-02T02:50:03;4.00;;;3.25;;
49876;SDS011;35771;48.978;9.294;2022-09-02T02:52:31;4.00;;;3.17;;
49876;SDS011;35771;48.978;9.294;2022-09-02T02:54:57;4.65;;;3.40;;
49876;SDS011;35771;48.978;9.294;2022-09-02T02:57:27;3.15;;;2.85;;
49876;SDS011;35771;48.978;9.294;2022-09-02T02:59:54;3.63;;;3.05;;
49876;SDS011;35771;48.978;9.294;2022-09-02T03:02:22;2.95;;;2.67;;
49876;SDS011;35771;48.978;9.294;2022-09-02T03:04:48;4.22;;;3.25;;
49876;SDS011;35771;48.978;9.294;2022-09-02T03:07:19;5.20;;;3.80;;
49876;SDS011;35771;48.978;9.294;2022-09-02T03:09:46;3.45;;;3.10;;
49876;SDS011;35771;48.978;9.294;2022-09-02T03:12:13;5.15;;;2.90;;
49876;SDS011;35771;48.978;9.294;2022-09-02T03:14:40;5.57;;;3.10;;
49876;SDS011;35771;48.978;9.294;2022-09-02T03:17:08;6.25;;;3.47;;
49876;SDS011;35771;48.978;9.294;2022-09-02T03:19:34;4.90;;;3.15;;
49876;SDS011;35771;48.978;9.294;2022-09-02T03:22:02;3.55;;;2.80;;
49876;SDS011;35771;48.978;9.294;2022-09-02T03:24:30;5.45;;;2.88;;
49876;SDS011;35771;48.978;9.294;2022-09-02T03:26:57;4.88;;;3.20;;
49876;SDS011;35771;48.978;9.294;2022-09-02T03:29:24;3.28;;;2.80;;
49876;SDS011;35771;48.978;9.294;2022-09-02T03:31:51;3.28;;;2.97;;
49876;SDS011;35771;48.978;9.294;2022-09-02T03:34:17;3.35;;;2.85;;
49876;SDS011;35771;48.978;9.294;2022-09-02T03:36:46;4.13;;;3.05;;
49876;SDS011;35771;48.978;9.294;2022-09-02T03:39:13;4.85;;;3.20;;
49876;SDS011;35771;48.978;9.294;2022-09-02T03:41:41;3.95;;;3.05;;
49876;SDS011;35771;48.978;9.294;2022-09-02T03:44:08;5.50;;;3.13;;
49876;SDS011;35771;48.978;9.294;2022-09-02T03:46:36;4.00;;;3.17;;
49876;SDS011;35771;48.978;9.294;2022-09-02T03:49:02;5.38;;;3.42;;
49876;SDS011;35771;48.978;9.294;2022-09-02T03:51:29;5.47;;;3.13;;
49876;SDS011;35771;48.978;9.294;2022-09-02T03:53:59;4.80;;;3.40;;
49876;SDS011;35771;48.978;9.294;2022-09-02T03:56:28;3.90;;;3.40;;
49876;SDS011;35771;48.978;9.294;2022-09-02T03:58:56;4.80;;;3.25;;
49876;SDS011;35771;48.978;9.294;2022-09-02T04:01:23;4.13;;;3.30;;
49876;SDS011;35771;48.978;9.294;2022-09-02T04:03:51;4.22;;;3.08;;
49876;SDS011;35771;48.978;9.294;2022-09-02T04:06:19;4.45;;;3.55;;
49876;SDS011;35771;48.978;9.294;2022-09-02T04:08:47;4.93;;;3.45;;
49876;SDS011;35771;48.978;9.294;2022-09-02T04:11:16;6.60;;;3.83;;
49876;SDS011;35771;48.978;9.294;2022-09-02T04:13:44;7.63;;;3.80;;
49876;SDS011;35771;48.978;9.294;2022-09-02T04:16:16;5.07;;;3.40;;
49876;SDS011;35771;48.978;9.294;2022-09-02T04:18:44;5.32;;;3.60;;
49876;SDS011;35771;48.978;9.294;2022-09-02T04:21:11;8.40;;;3.75;;
49876;SDS011;35771;48.978;9.294;2022-09-02T04:23:38;6.65;;;3.88;;
49876;SDS011;35771;48.978;9.294;2022-09-02T04:26:06;6.03;;;3.75;;
49876;SDS011;35771;48.978;9.294;2022-09-02T04:28:35;4.38;;;3.33;;
49876;SDS011;35771;48.978;9.294;2022-09-02T04:31:02;4.70;;;3.20;;
49876;SDS011;35771;48.978;9.294;2022-09-02T04:33:31;5.20;;;2.95;;
49876;SDS011;35771;48.978;9.294;2022-09-02T04:35:58;6.43;;;3.35;;
49876;SDS011;35771;48.978;9.294;2022-09-02T04:38:25;3.75;;;3.20;;
49876;SDS011;35771;48.978;9.294;2022-09-02T04:40:52;4.50;;;3.13;;
49876;SDS011;35771;48.978;9.294;2022-09-02T04:43:19;6.20;;;3.60;;
49876;SDS011;35771;48.978;9.294;2022-09-02T04:45:49;4.78;;;3.38;;
49876;SDS011;35771;48.978;9.294;2022-09-02T04:48:16;5.90;;;3.75;;
49876;SDS011;35771;48.978;9.294;2022-09-02T04:50:45;4.32;;;3.03;;
49876;SDS011;35771;48.978;9.294;2022-09-02T04:53:12;3.88;;;3.15;;
49876;SDS011;35771;48.978;9.294;2022-09-02T04:55:38;5.78;;;3.20;;
49876;SDS011;35771;48.978;9.294;2022-09-02T04:58:06;3.25;;;2.92;;
49876;SDS011;35771;48.978;9.294;2022-09-02T05:00:33;3.20;;;2.90;;
49876;SDS011;35771;48.978;9.294;2022-09-02T05:03:01;6.05;;;2.95;;
49876;SDS011;35771;48.978;9.294;2022-09-02T05:05:29;4.93;;;2.70;;
49876;SDS011;35771;48.978;9.294;2022-09-02T05:07:57;3.30;;;2.53;;
49876;SDS011;35771;48.978;9.294;2022-09-02T05:10:24;4.18;;;2.65;;
49876;SDS011;35771;48.978;9.294;2022-09-02T05:12:53;3.20;;;2.72;;
49876;SDS011;35771;48.978;9.294;2022-09-02T05:15:20;3.10;;;2.40;;
49876;SDS011;35771;48.978;9.294;2022-09-02T05:17:46;4.60;;;2.72;;
49876;SDS011;35771;48.978;9.294;2022-09-02T05:20:13;2.65;;;2.17;;
49876;SDS011;35771;48.978;9.294;2022-09-02T05:22:40;5.82;;;2.50;;
49876;SDS011;35771;48.978;9.294;2022-09-02T05:25:09;2.83;;;2.22;;
49876;SDS011;35771;48.978;9.294;2022-09-02T05:27:36;5.47;;;2.40;;
49876;SDS011;35771;48.978;9.294;2022-09-02T05:30:03;3.28;;;2.25;;
49876;SDS011;35771;48.978;9.294;2022-09-02T05:32:30;3.08;;;2.65;;
49876;SDS011;35771;48.978;9.294;2022-09-02T05:34:57;2.85;;;2.22;;
49876;SDS011;35771;48.978;9.294;2022-09-02T05:37:24;4.63;;;2.75;;
49876;SDS011;35771;48.978;9.294;2022-09-02T05:39:51;6.80;;;2.35;;
49876;SDS011;35771;48.978;9.294;2022-09-02T05:42:19;2.38;;;2.10;;
49876;SDS011;35771;48.978;9.294;2022-09-02T05:44:49;2.55;;;2.17;;
49876;SDS011;35771;48.978;9.294;2022-09-02T05:47:15;2.80;;;2.00;;
49876;SDS011;35771;48.978;9.294;2022-09-02T05:49:42;3.45;;;2.05;;
49876;SDS011;35771;48.978;9.294;2022-09-02T05:52:09;3.63;;;2.42;;
49876;SDS011;35771;48.978;9.294;2022-09-02T05:54:38;3.78;;;2.35;;
49876;SDS011;35771;48.978;9.294;2022-09-02T05:57:06;5.35;;;2.38;;
49876;SDS011;35771;48.978;9.294;2022-09-02T05:59:37;2.78;;;2.22;;
49876;SDS011;35771;48.978;9.294;2022-09-02T06:02:06;4.95;;;2.25;;
49876;SDS011;35771;48.978;9.294;2022-09-02T06:04:36;7.72;;;2.17;;
49876;SDS011;35771;48.978;9.294;2022-09-02T06:07:03;3.38;;;2.28;;
49876;SDS011;35771;48.978;9.294;2022-09-02T06:09:30;2.50;;;1.98;;
49876;SDS011;35771;48.978;9.294;2022-09-02T06:11:57;4.38;;;2.10;;
49876;SDS011;35771;48.978;9.294;2022-09-02T06:14:24;4.57;;;1.65;;
49876;SDS011;35771;48.978;9.294;2022-09-02T06:16:54;3.95;;;1.90;;
49876;SDS011;35771;48.978;9.294;2022-09-02T06:19:22;3.67;;;1.92;;
49876;SDS011;35771;48.978;9.294;2022-09-02T06:21:51;4.07;;;2.40;;
49876;SDS011;35771;48.978;9.294;2022-09-02T06:24:18;1.92;;;1.65;;
49876;SDS011;35771;48.978;9.294;2022-09-02T06:26:45;2.95;;;2.05;;
49876;SDS011;35771;48.978;9.294;2022-09-02T06:29:12;5.28;;;1.70;;
49876;SDS011;35771;48.978;9.294;2022-09-02T06:31:39;2.47;;;1.80;;
49876;SDS011;35771;48.978;9.294;2022-09-02T06:34:09;3.25;;;2.10;;
49876;SDS011;35771;48.978;9.294;2022-09-02T06:36:38;2.15;;;1.77;;
49876;SDS011;35771;48.978;9.294;2022-09-02T06:39:06;10.95;;;1.90;;
49876;SDS011;35771;48.978;9.294;2022-09-02T06:41:37;2.15;;;1.70;;
49876;SDS011;35771;48.978;9.294;2022-09-02T06:44:04;3.55;;;1.77;;
49876;SDS011;35771;48.978;9.294;2022-09-02T06:46:34;3.38;;;1.60;;
49876;SDS011;35771;48.978;9.294;2022-09-02T06:49:03;2.42;;;1.90;;
49876;SDS011;35771;48.978;9.294;2022-09-02T06:51:35;3.33;;;1.83;;
49876;SDS011;35771;48.978;9.294;2022-09-02T06:54:05;4.00;;;1.58;;
49876;SDS011;35771;48.978;9.294;2022-09-02T06:56:35;1.92;;;1.70;;
49876;SDS011;35771;48.978;9.294;2022-09-02T06:59:02;4.03;;;1.67;;
49876;SDS011;35771;48.978;9.294;2022-09-02T07:01:32;4.95;;;1.85;;
49876;SDS011;35771;48.978;9.294;2022-09-02T07:04:02;2.45;;;1.52;;
49876;SDS011;35771;48.978;9.294;2022-09-02T07:06:48;3.22;;;1.73;;
49876;SDS011;35771;48.978;9.294;2022-09-02T07:09:22;3.40;;;1.58;;
49876;SDS011;35771;48.978;9.294;2022-09-02T07:11:55;2.42;;;1.70;;
49876;SDS011;35771;48.978;9.294;2022-09-02T07:14:25;2.42;;;1.77;;
49876;SDS011;35771;48.978;9.294;2022-09-02T07:16:57;2.30;;;1.58;;
49876;SDS011;35771;48.978;9.294;2022-09-02T07:19:24;3.28;;;2.15;;
49876;SDS011;35771;48.978;9.294;2022-09-02T07:21:52;2.95;;;1.90;;
49876;SDS011;35771;48.978;9.294;2022-09-02T07:24:19;3.58;;;1.70;;
49876;SDS011;35771;48.978;9.294;2022-09-02T07:26:46;1.83;;;1.40;;
49876;SDS011;35771;48.978;9.294;2022-09-02T07:29:13;3.17;;;1.60;;
49876;SDS011;35771;48.978;9.294;2022-09-02T07:31:45;3.75;;;1.60;;
49876;SDS011;35771;48.978;9.294;2022-09-02T07:34:14;1.98;;;1.67;;
49876;SDS011;35771;48.978;9.294;2022-09-02T07:36:41;1.83;;;1.23;;
49876;SDS011;35771;48.978;9.294;2022-09-02T07:39:12;2.90;;;1.63;;
49876;SDS011;35771;48.978;9.294;2022-09-02T07:41:43;1.90;;;1.27;;
49876;SDS011;35771;48.978;9.294;2022-09-02T07:44:12;1.85;;;1.52;;
49876;SDS011;35771;48.978;9.294;2022-09-02T07:46:39;3.30;;;1.70;;
49876;SDS011;35771;48.978;9.294;2022-09-02T07:49:07;5.18;;;1.63;;
49876;SDS011;35771;48.978;9.294;2022-09-02T07:51:36;11.55;;;4.10;;
49876;SDS011;35771;48.978;9.294;2022-09-02T07:54:06;3.25;;;1.58;;
49876;SDS011;35771;48.978;9.294;2022-09-02T07:56:36;1.55;;;1.20;;
49876;SDS011;35771;48.978;9.294;2022-09-02T07:59:03;2.08;;;1.30;;
49876;SDS011;35771;48.978;9.294;2022-09-02T08:01:30;1.60;;;1.35;;
49876;SDS011;35771;48.978;9.294;2022-09-02T08:03:58;1.70;;;1.52;;
49876;SDS011;35771;48.978;9.294;2022-09-02T08:06:25;1.58;;;1.23;;
49876;SDS011;35771;48.978;9.294;2022-09-02T08:08:53;2.83;;;1.40;;
49876;SDS011;35771;48.978;9.294;2022-09-02T08:11:20;1.48;;;1.38;;
49876;SDS011;35771;48.978;9.294;2022-09-02T08:13:51;4.63;;;1.73;;
49876;SDS011;35771;48.978;9.294;2022-09-02T08:16:17;3.55;;;1.50;;
49876;SDS011;35771;48.978;9.294;2022-09-02T08:18:44;5.30;;;1.30;;
49876;SDS011;35771;48.978;9.294;2022-09-02T08:21:12;8.52;;;1.48;;
49876;SDS011;35771;48.978;9.294;2022-09-02T08:23:42;2.50;;;1.20;;
49876;SDS011;35771;48.978;9.294;2022-09-02T08:26:14;2.70;;;1.25;;
49876;SDS011;35771;48.978;9.294;2022-09-02T08:28:41;2.17;;;1.30;;
49876;SDS011;35771;48.978;9.294;2022-09-02T08:31:10;2.30;;;1.20;;
49876;SDS011;35771;48.978;9.294;2022-09-02T08:33:36;2.65;;;1.15;;
49876;SDS011;35771;48.978;9.294;2022-09-02T08:36:03;1.25;;;1.10;;
49876;SDS011;35771;48.978;9.294;2022-09-02T08:38:32;1.20;;;1.00;;
49876;SDS011;35771;48.978;9.294;2022-09-02T08:41:02;3.90;;;1.38;;
49876;SDS011;35771;48.978;9.294;2022-09-02T08:43:38;3.38;;;0.93;;
49876;SDS011;35771;48.978;9.294;2022-09-02T08:46:09;7.25;;;1.20;;
49876;SDS011;35771;48.978;9.294;2022-09-02T08:48:41;4.18;;;0.90;;
49876;SDS011;35771;48.978;9.294;2022-09-02T08:51:15;9.07;;;0.98;;
49876;SDS011;35771;48.978;9.294;2022-09-02T08:53:47;3.05;;;0.80;;
49876;SDS011;35771;48.978;9.294;2022-09-02T08:56:19;4.00;;;0.73;;
49876;SDS011;35771;48.978;9.294;2022-09-02T08:58:48;1.98;;;0.95;;
49876;SDS011;35771;48.978;9.294;2022-09-02T09:01:22;8.02;;;1.15;;
49876;SDS011;35771;48.978;9.294;2022-09-02T09:04:06;1.20;;;0.95;;
49876;SDS011;35771;48.978;9.294;2022-09-02T09:06:44;4.25;;;1.10;;
49876;SDS011;35771;48.978;9.294;2022-09-02T09:09:21;5.15;;;0.98;;
49876;SDS011;35771;48.978;9.294;2022-09-02T09:11:57;2.85;;;0.70;;
49876;SDS011;35771;48.978;9.294;2022-09-02T09:14:31;2.95;;;0.80;;
49876;SDS011;35771;48.978;9.294;2022-09-02T09:17:07;1.58;;;0.95;;
49876;SDS011;35771;48.978;9.294;2022-09-02T09:19:42;4.95;;;1.00;;
49876;SDS011;35771;48.978;9.294;2022-09-02T09:22:14;5.07;;;1.00;;
49876;SDS011;35771;48.978;9.294;2022-09-02T09:24:45;4.53;;;0.80;;
49876;SDS011;35771;48.978;9.294;2022-09-02T09:27:13;1.58;;;0.90;;
49876;SDS011;35771;48.978;9.294;2022-09-02T09:29:42;1.35;;;0.93;;
49876;SDS011;35771;48.978;9.294;2022-09-02T09:32:13;3.72;;;0.93;;
49876;SDS011;35771;48.978;9.294;2022-09-02T09:34:54;1.33;;;0.80;;
49876;SDS011;35771;48.978;9.294;2022-09-02T09:37:26;0.80;;;0.80;;
49876;SDS011;35771;48.978;9.294;2022-09-02T09:39:57;3.03;;;1.02;;
49876;SDS011;35771;48.978;9.294;2022-09-02T09:42:32;2.17;;;1.00;;
49876;SDS011;35771;48.978;9.294;2022-09-02T09:45:08;2.53;;;0.90;;
49876;SDS011;35771;48.978;9.294;2022-09-02T09:47:45;2.35;;;0.88;;
49876;SDS011;35771;48.978;9.294;2022-09-02T09:50:35;2.58;;;1.08;;
49876;SDS011;35771;48.978;9.294;2022-09-02T09:55:51;4.13;;;0.93;;
49876;SDS011;35771;48.978;9.294;2022-09-02T09:58:19;1.85;;;0.73;;
49876;SDS011;35771;48.978;9.294;2022-09-02T10:00:47;3.20;;;1.00;;
49876;SDS011;35771;48.978;9.294;2022-09-02T10:03:24;2.28;;;0.70;;
49876;SDS011;35771;48.978;9.294;2022-09-02T10:05:55;3.42;;;0.85;;
49876;SDS011;35771;48.978;9.294;2022-09-02T10:08:23;1.27;;;0.70;;
49876;SDS011;35771;48.978;9.294;2022-09-02T10:10:55;3.75;;;0.82;;
49876;SDS011;35771;48.978;9.294;2022-09-02T10:13:24;2.90;;;1.00;;
49876;SDS011;35771;48.978;9.294;2022-09-02T10:15:58;2.22;;;0.98;;
49876;SDS011;35771;48.978;9.294;2022-09-02T10:18:34;0.75;;;0.70;;
49876;SDS011;35771;48.978;9.294;2022-09-02T10:21:07;1.00;;;0.73;;
49876;SDS011;35771;48.978;9.294;2022-09-02T10:23:49;6.40;;;1.02;;
49876;SDS011;35771;48.978;9.294;2022-09-02T10:26:24;1.20;;;0.75;;
49876;SDS011;35771;48.978;9.294;2022-09-02T10:29:04;1.85;;;0.60;;
49876;SDS011;35771;48.978;9.294;2022-09-02T10:32:03;0.93;;;0.68;;
49876;SDS011;35771;48.978;9.294;2022-09-02T10:34:48;1.20;;;0.70;;
49876;SDS011;35771;48.978;9.294;2022-09-02T10:37:28;2.50;;;0.70;;
49876;SDS011;35771;48.978;9.294;2022-09-02T10:40:07;0.50;;;0.50;;
49876;SDS011;35771;48.978;9.294;2022-09-02T10:42:49;0.70;;;0.68;;
49876;SDS011;35771;48.978;9.294;2022-09-02T10:45:29;5.88;;;0.65;;
49876;SDS011;35771;48.978;9.294;2022-09-02T10:48:03;5.32;;;0.80;;
49876;SDS011;35771;48.978;9.294;2022-09-02T10:50:44;2.13;;;0.80;;
49876;SDS011;35771;48.978;9.294;2022-09-02T10:56:04;1.00;;;0.80;;
49876;SDS011;35771;48.978;9.294;2022-09-02T10:58:37;2.45;;;0.70;;
49876;SDS011;35771;48.978;9.294;2022-09-02T11:01:07;2.28;;;0.75;;
49876;SDS011;35771;48.978;9.294;2022-09-02T11:03:41;2.38;;;1.40;;
49876;SDS011;35771;48.978;9.294;2022-09-02T11:06:25;0.70;;;0.63;;
49876;SDS011;35771;48.978;9.294;2022-09-02T11:08:55;1.98;;;1.00;;
49876;SDS011;35771;48.978;9.294;2022-09-02T11:11:28;1.75;;;0.60;;
49876;SDS011;35771;48.978;9.294;2022-09-02T11:13:59;0.88;;;0.70;;
49876;SDS011;35771;48.978;9.294;2022-09-02T11:16:33;2.08;;;1.08;;
49876;SDS011;35771;48.978;9.294;2022-09-02T11:19:05;1.75;;;0.63;;
49876;SDS011;35771;48.978;9.294;2022-09-02T11:21:47;0.93;;;0.88;;
49876;SDS011;35771;48.978;9.294;2022-09-02T11:24:18;2.25;;;0.88;;
49876;SDS011;35771;48.978;9.294;2022-09-02T11:26:53;5.90;;;0.68;;
49876;SDS011;35771;48.978;9.294;2022-09-02T11:29:27;1.27;;;0.55;;
49876;SDS011;35771;48.978;9.294;2022-09-02T11:32:04;3.13;;;0.60;;
49876;SDS011;35771;48.978;9.294;2022-09-02T11:34:38;2.45;;;1.00;;
49876;SDS011;35771;48.978;9.294;2022-09-02T11:37:13;2.25;;;0.60;;
49876;SDS011;35771;48.978;9.294;2022-09-02T11:39:52;6.75;;;0.82;;
49876;SDS011;35771;48.978;9.294;2022-09-02T11:42:28;1.60;;;0.90;;
49876;SDS011;35771;48.978;9.294;2022-09-02T11:45:15;2.83;;;0.68;;
49876;SDS011;35771;48.978;9.294;2022-09-02T11:50:49;0.77;;;0.77;;
49876;SDS011;35771;48.978;9.294;2022-09-02T11:53:44;1.75;;;0.70;;
49876;SDS011;35771;48.978;9.294;2022-09-02T11:56:13;1.08;;;0.80;;
49876;SDS011;35771;48.978;9.294;2022-09-02T11:58:43;0.88;;;0.80;;
49876;SDS011;35771;48.978;9.294;2022-09-02T12:01:18;1.70;;;0.50;;
49876;SDS011;35771;48.978;9.294;2022-09-02T12:03:51;2.95;;;1.00;;
49876;SDS011;35771;48.978;9.294;2022-09-02T12:06:22;0.82;;;0.50;;
49876;SDS011;35771;48.978;9.294;2022-09-02T12:08:58;1.05;;;0.57;;
49876;SDS011;35771;48.978;9.294;2022-09-02T12:11:40;2.47;;;0.80;;
49876;SDS011;35771;48.978;9.294;2022-09-02T12:14:10;3.30;;;0.70;;
49876;SDS011;35771;48.978;9.294;2022-09-02T12:16:59;1.40;;;0.70;;
49876;SDS011;35771;48.978;9.294;2022-09-02T12:19:30;3.60;;;1.00;;
49876;SDS011;35771;48.978;9.294;2022-09-02T12:31:12;4.00;;;0.75;;
49876;SDS011;35771;48.978;9.294;2022-09-02T12:33:43;2.05;;;0.70;;
49876;SDS011;35771;48.978;9.294;2022-09-02T12:42:14;0.50;;;0.50;;
49876;SDS011;35771;48.978;9.294;2022-09-02T12:44:48;1.77;;;0.90;;
49876;SDS011;35771;48.978;9.294;2022-09-02T12:47:25;1.00;;;0.88;;
49876;SDS011;35771;48.978;9.294;2022-09-02T12:50:01;0.95;;;0.60;;
49876;SDS011;35771;48.978;9.294;2022-09-02T12:52:43;1.45;;;0.80;;
49876;SDS011;35771;48.978;9.294;2022-09-02T12:55:17;1.70;;;0.70;;
49876;SDS011;35771;48.978;9.294;2022-09-02T12:57:48;2.70;;;1.23;;
49876;SDS011;35771;48.978;9.294;2022-09-02T13:00:18;0.50;;;0.50;;
49876;SDS011;35771;48.978;9.294;2022-09-02T13:02:55;2.00;;;0.80;;
49876;SDS011;35771;48.978;9.294;2022-09-02T13:05:39;1.85;;;0.77;;
49876;SDS011;35771;48.978;9.294;2022-09-02T13:08:29;1.65;;;1.00;;
49876;SDS011;35771;48.978;9.294;2022-09-02T13:11:22;1.73;;;1.00;;
49876;SDS011;35771;48.978;9.294;2022-09-02T13:17:15;1.15;;;1.00;;
49876;SDS011;35771;48.978;9.294;2022-09-02T13:26:03;0.65;;;0.65;;
49876;SDS011;35771;48.978;9.294;2022-09-02T13:31:32;4.00;;;0.80;;
49876;SDS011;35771;48.978;9.294;2022-09-02T13:34:01;2.58;;;0.70;;
49876;SDS011;35771;48.978;9.294;2022-09-02T13:36:30;4.00;;;0.68;;
49876;SDS011;35771;48.978;9.294;2022-09-02T13:39:11;1.92;;;0.60;;
49876;SDS011;35771;48.978;9.294;2022-09-02T13:41:39;1.30;;;0.77;;
49876;SDS011;35771;48.978;9.294;2022-09-02T13:44:07;1.00;;;0.73;;
49876;SDS011;35771;48.978;9.294;2022-09-02T13:46:41;2.38;;;0.70;;
49876;SDS011;35771;48.978;9.294;2022-09-02T13:49:18;1.50;;;0.80;;
49876;SDS011;35771;48.978;9.294;2022-09-02T13:51:46;0.63;;;0.60;;
49876;SDS011;35771;48.978;9.294;2022-09-02T13:54:18;0.93;;;0.70;;
49876;SDS011;35771;48.978;9.294;2022-09-02T13:56:51;0.98;;;0.63;;
49876;SDS011;35771;48.978;9.294;2022-09-02T13:59:31;0.85;;;0.60;;
49876;SDS011;35771;48.978;9.294;2022-09-02T14:02:15;2.03;;;0.70;;
49876;SDS011;35771;48.978;9.294;2022-09-02T14:04:49;3.00;;;1.00;;
49876;SDS011;35771;48.978;9.294;2022-09-02T14:07:20;4.13;;;1.00;;
49876;SDS011;35771;48.978;9.294;2022-09-02T14:09:51;3.25;;;0.70;;
49876;SDS011;35771;48.978;9.294;2022-09-02T14:12:18;2.60;;;0.80;;
49876;SDS011;35771;48.978;9.294;2022-09-02T14:14:46;1.67;;;0.80;;
49876;SDS011;35771;48.978;9.294;2022-09-02T14:17:16;3.53;;;0.77;;
49876;SDS011;35771;48.978;9.294;2022-09-02T14:19:44;3.17;;;1.02;;
49876;SDS011;35771;48.978;9.294;2022-09-02T14:22:20;1.08;;;0.60;;
49876;SDS011;35771;48.978;9.294;2022-09-02T14:24:49;3.53;;;0.80;;
49876;SDS011;35771;48.978;9.294;2022-09-02T14:27:16;2.17;;;0.80;;
49876;SDS011;35771;48.978;9.294;2022-09-02T14:29:46;4.20;;;0.85;;
49876;SDS011;35771;48.978;9.294;2022-09-02T14:32:20;1.63;;;0.82;;
49876;SDS011;35771;48.978;9.294;2022-09-02T14:34:48;0.70;;;0.70;;
49876;SDS011;35771;48.978;9.294;2022-09-02T14:37:45;1.50;;;0.82;;
49876;SDS011;35771;48.978;9.294;2022-09-02T14:40:15;0.95;;;0.75;;
49876;SDS011;35771;48.978;9.294;2022-09-02T14:42:47;1.45;;;0.80;;
49876;SDS011;35771;48.978;9.294;2022-09-02T14:45:23;2.20;;;0.90;;
49876;SDS011;35771;48.978;9.294;2022-09-02T14:47:51;1.70;;;0.70;;
49876;SDS011;35771;48.978;9.294;2022-09-02T14:50:21;5.78;;;1.08;;
49876;SDS011;35771;48.978;9.294;2022-09-02T14:52:55;2.40;;;0.80;;
49876;SDS011;35771;48.978;9.294;2022-09-02T14:55:44;6.10;;;0.85;;
49876;SDS011;35771;48.978;9.294;2022-09-02T14:58:13;1.08;;;0.80;;
49876;SDS011;35771;48.978;9.294;2022-09-02T15:00:39;1.50;;;0.77;;
49876;SDS011;35771;48.978;9.294;2022-09-02T15:03:06;2.15;;;0.70;;
49876;SDS011;35771;48.978;9.294;2022-09-02T15:05:34;3.53;;;0.90;;
49876;SDS011;35771;48.978;9.294;2022-09-02T15:08:02;0.90;;;0.77;;
49876;SDS011;35771;48.978;9.294;2022-09-02T15:10:28;0.85;;;0.75;;
49876;SDS011;35771;48.978;9.294;2022-09-02T15:12:56;0.70;;;0.70;;
49876;SDS011;35771;48.978;9.294;2022-09-02T15:15:23;2.92;;;0.70;;
49876;SDS011;35771;48.978;9.294;2022-09-02T15:17:51;3.92;;;0.80;;
49876;SDS011;35771;48.978;9.294;2022-09-02T15:20:18;0.80;;;0.80;;
49876;SDS011;35771;48.978;9.294;2022-09-02T15:22:46;3.53;;;0.68;;
49876;SDS011;35771;48.978;9.294;2022-09-02T15:25:15;4.20;;;0.73;;
49876;SDS011;35771;48.978;9.294;2022-09-02T15:27:41;1.67;;;0.80;;
49876;SDS011;35771;48.978;9.294;2022-09-02T15:30:08;3.60;;;0.70;;
49876;SDS011;35771;48.978;9.294;2022-09-02T15:32:36;1.80;;;0.80;;
49876;SDS011;35771;48.978;9.294;2022-09-02T15:35:03;3.53;;;0.90;;
49876;SDS011;35771;48.978;9.294;2022-09-02T15:37:31;3.97;;;0.85;;
49876;SDS011;35771;48.978;9.294;2022-09-02T15:40:01;0.85;;;0.68;;
49876;SDS011;35771;48.978;9.294;2022-09-02T15:42:30;1.95;;;1.00;;
49876;SDS011;35771;48.978;9.294;2022-09-02T15:44:59;0.68;;;0.68;;
49876;SDS011;35771;48.978;9.294;2022-09-02T15:47:26;2.83;;;0.90;;